Vb Balear — EAQX — position and weather

sailwx.info

Track history (hours):
 
Tides and Currents Weather Stations Pressure Air Temp Water Temp Dewpoint Dewpoint Depression Visibility Wind Speed Wind Dir Waves Ship Positions

Vb Balear

Last reported at 2015-Apr-16 09:33 UTC. Time now 2015-Apr-21 21:08 UTC.
Position N 28°08' W 015°25'.

MMSI: 224494000.

Date/timePositionNaut miles runAvg speedWind from/ knotsBaromVisibWave heightAir tempDewpointWater temp
2015-Apr-16 09:33N 28°08' W 015°25'1 0.8
2015-Apr-16 08:33N 28°07' W 015°24'2 1.5
2015-Apr-16 07:33N 28°08' W 015°26'0 0.0
2015-Apr-16 06:33N 28°08' W 015°26'1 0.7
2015-Apr-16 05:33N 28°08' W 015°25'1 0.6
2015-Apr-16 04:33N 28°08' W 015°25'1 0.6
2015-Apr-16 03:33N 28°08' W 015°26'0 0.0
2015-Apr-16 02:33N 28°08' W 015°26'1 0.6
2015-Apr-16 01:33N 28°08' W 015°25'1 0.7
2015-Apr-16 00:33N 28°08' W 015°25'1 1.1
2015-Apr-15 23:33N 28°08' W 015°26'0 0.0
2015-Apr-15 22:33N 28°08' W 015°26'0 0.4
2015-Apr-15 21:33N 28°08' W 015°25'0 0.4
2015-Apr-15 20:33N 28°08' W 015°26'0 0.0
2015-Apr-15 19:33N 28°08' W 015°26'0 0.0
2015-Apr-15 18:33N 28°08' W 015°26'0 0.0
2015-Apr-15 17:33N 28°08' W 015°26'0 0.0
2015-Apr-15 16:33N 28°08' W 015°26'0 0.0
2015-Apr-15 15:33N 28°08' W 015°26'0 0.0
2015-Apr-15 14:33N 28°08' W 015°26'0 0.0
2015-Apr-15 13:32N 28°08' W 015°26'0 0.0
2015-Apr-15 12:33N 28°08' W 015°26'0 0.0
2015-Apr-15 11:33N 28°08' W 015°26'0 0.0
2015-Apr-15 10:33N 28°08' W 015°26'0 0.0
2015-Apr-15 09:33N 28°08' W 015°26'0 0.3
2015-Apr-15 08:33N 28°08' W 015°25'0 0.2
2015-Apr-15 07:33N 28°08' W 015°25'0 0.5
2015-Apr-15 06:33N 28°08' W 015°25'0 0.2
2015-Apr-15 05:34N 28°08' W 015°25'1 0.8
2015-Apr-15 04:34N 28°08' W 015°26'0 0.0
2015-Apr-15 03:32N 28°08' W 015°26'0 0.0
2015-Apr-15 02:32N 28°08' W 015°26'0 0.0
2015-Apr-15 01:32N 28°08' W 015°26'0 0.0
2015-Apr-15 00:33N 28°08' W 015°26'0 0.0
2015-Apr-14 23:33N 28°08' W 015°26'0 0.0
2015-Apr-14 22:31N 28°08' W 015°26'0 0.0
2015-Apr-14 21:32N 28°08' W 015°26'0 0.0
2015-Apr-14 20:33N 28°08' W 015°26'0 0.0
2015-Apr-14 19:32N 28°08' W 015°26'0 0.0
2015-Apr-14 18:33N 28°08' W 015°26'1 0.9
2015-Apr-14 17:33N 28°09' W 015°25'1 0.9
2015-Apr-14 16:33N 28°08' W 015°26'0 0.0
2015-Apr-14 15:33N 28°08' W 015°26'0 0.0
2015-Apr-14 14:33N 28°08' W 015°26'0 0.0
2015-Apr-14 13:33N 28°08' W 015°26'0 0.0
2015-Apr-14 12:33N 28°08' W 015°26'0 0.0
2015-Apr-14 11:34N 28°08' W 015°26'0 0.0
2015-Apr-14 10:33N 28°08' W 015°26'0 0.0
2015-Apr-14 09:33N 28°08' W 015°26'1 1.4
2015-Apr-14 08:33N 28°07' W 015°25'1 0.8
2015-Apr-14 07:33N 28°08' W 015°25'1 0.8
2015-Apr-14 06:33N 28°08' W 015°26'1 1.1
2015-Apr-14 05:33N 28°07' W 015°25'1 1.1
2015-Apr-14 04:33N 28°08' W 015°26'0 0.0
2015-Apr-14 03:33N 28°08' W 015°26'2 1.7
2015-Apr-14 02:33N 28°09' W 015°24'2 1.6
2015-Apr-14 01:33N 28°08' W 015°24'1 1.4
2015-Apr-14 00:33N 28°08' W 015°26'0 0.0
2015-Apr-13 23:33N 28°08' W 015°26'0 0.0
2015-Apr-13 22:33N 28°08' W 015°26'0 0.0
2015-Apr-13 21:33N 28°08' W 015°26'0 0.0
2015-Apr-13 20:33N 28°08' W 015°26'0 0.0
2015-Apr-13 19:33N 28°08' W 015°26'0 0.0
2015-Apr-13 18:33N 28°08' W 015°26'2 1.9
2015-Apr-13 17:33N 28°07' W 015°25'5 5.1
2015-Apr-13 16:34N 28°02' W 015°22'0 0.1
2015-Apr-13 15:34N 28°02' W 015°22'0 0.1
2015-Apr-13 14:34N 28°02' W 015°22'0 0.1
2015-Apr-13 13:34N 28°02' W 015°22'0 0.2
2015-Apr-13 12:34N 28°02' W 015°22'3 3.3
2015-Apr-13 11:33N 28°06' W 015°23'3 3.2
2015-Apr-13 10:33N 28°09' W 015°24'1 0.8
2015-Apr-13 09:33N 28°10' W 015°24'2 1.9
2015-Apr-13 08:33N 28°08' W 015°25'1 0.5
2015-Apr-13 07:33N 28°09' W 015°26'0 0.0
2015-Apr-13 06:33N 28°08' W 015°26'0 0.0
2015-Apr-13 05:33N 28°08' W 015°26'0 0.0
2015-Apr-13 04:33N 28°08' W 015°26'0 0.0
2015-Apr-13 03:33N 28°08' W 015°26'0 0.0
2015-Apr-13 02:33N 28°08' W 015°26'0 0.0
2015-Apr-13 01:33N 28°08' W 015°26'0 0.0
2015-Apr-13 00:33N 28°08' W 015°26'0 0.0
2015-Apr-12 23:33N 28°08' W 015°26'0 0.0
2015-Apr-12 22:33N 28°08' W 015°26'0 0.0
2015-Apr-12 21:34N 28°08' W 015°26'0 0.0
2015-Apr-12 20:34N 28°08' W 015°26'2 1.6
2015-Apr-12 19:33N 28°07' W 015°24'2 1.6
2015-Apr-12 18:33N 28°08' W 015°26'0 0.0
2015-Apr-12 17:33N 28°08' W 015°26'0 0.0
2015-Apr-12 16:33N 28°08' W 015°26'1 0.6
2015-Apr-12 15:33N 28°09' W 015°25'1 0.6
2015-Apr-12 14:33N 28°08' W 015°26'0 0.2
2015-Apr-12 13:33N 28°08' W 015°25'6 6.0
2015-Apr-12 12:33N 28°03' W 015°22'1110.7
2015-Apr-12 11:33N 27°56' W 015°12'8 8.3
2015-Apr-12 10:33N 27°54' W 015°03'1 1.3
2015-Apr-12 09:33N 27°55' W 015°04'2 2.5
2015-Apr-12 08:33N 27°57' W 015°06'4 4.5
2015-Apr-12 07:33N 28°01' W 015°09'4 3.6
2015-Apr-12 06:33N 28°03' W 015°12'3 3.0
2015-Apr-12 05:33N 28°03' W 015°16'4 3.7
2015-Apr-12 04:33N 28°05' W 015°19'3 3.1
2015-Apr-12 03:33N 28°06' W 015°23'3 3.3
2015-Apr-12 02:33N 28°08' W 015°25'0 0.3
2015-Apr-12 01:33N 28°08' W 015°26'0 0.3
2015-Apr-12 00:33N 28°08' W 015°25'1 1.1
2015-Apr-11 23:32N 28°07' W 015°25'1 1.4
2015-Apr-11 22:33N 28°08' W 015°26'0 0.0
2015-Apr-11 21:33N 28°08' W 015°26'0 0.3
2015-Apr-11 20:33N 28°08' W 015°25'0 0.3
2015-Apr-11 19:33N 28°08' W 015°26'1 0.7
2015-Apr-11 18:33N 28°08' W 015°25'1 1.0
2015-Apr-11 17:33N 28°07' W 015°24'2 1.6
2015-Apr-11 16:33N 28°08' W 015°26'0 0.4
2015-Apr-11 15:33N 28°09' W 015°25'1 1.2
2015-Apr-11 14:33N 28°08' W 015°25'1 1.0
2015-Apr-11 13:33N 28°08' W 015°26'1 0.9
2015-Apr-11 12:33N 28°08' W 015°25'1 0.8
2015-Apr-11 11:33N 28°07' W 015°24'  
Track history (hours):
 
Tides and Currents Weather Stations Pressure Air Temp Water Temp Dewpoint Dewpoint Depression Visibility Wind Speed Wind Dir Waves Ship Positions

Vb Balear

Last reported at 2015-Apr-16 09:33 UTC. Time now 2015-Apr-21 21:08 UTC.
Position N 28°08' W 015°25'.

MMSI: 224494000.

Date/timePositionNaut miles runAvg speedWind from/ knotsBaromVisibWave heightAir tempDewpointWater temp
2015-Apr-16 09:33N 28°08' W 015°25'1 0.8
2015-Apr-16 08:33N 28°07' W 015°24'2 1.5
2015-Apr-16 07:33N 28°08' W 015°26'0 0.0
2015-Apr-16 06:33N 28°08' W 015°26'1 0.7
2015-Apr-16 05:33N 28°08' W 015°25'1 0.6
2015-Apr-16 04:33N 28°08' W 015°25'1 0.6
2015-Apr-16 03:33N 28°08' W 015°26'0 0.0
2015-Apr-16 02:33N 28°08' W 015°26'1 0.6
2015-Apr-16 01:33N 28°08' W 015°25'1 0.7
2015-Apr-16 00:33N 28°08' W 015°25'1 1.1
2015-Apr-15 23:33N 28°08' W 015°26'0 0.0
2015-Apr-15 22:33N 28°08' W 015°26'0 0.4
2015-Apr-15 21:33N 28°08' W 015°25'0 0.4
2015-Apr-15 20:33N 28°08' W 015°26'0 0.0
2015-Apr-15 19:33N 28°08' W 015°26'0 0.0
2015-Apr-15 18:33N 28°08' W 015°26'0 0.0
2015-Apr-15 17:33N 28°08' W 015°26'0 0.0
2015-Apr-15 16:33N 28°08' W 015°26'0 0.0
2015-Apr-15 15:33N 28°08' W 015°26'0 0.0
2015-Apr-15 14:33N 28°08' W 015°26'0 0.0
2015-Apr-15 13:32N 28°08' W 015°26'0 0.0
2015-Apr-15 12:33N 28°08' W 015°26'0 0.0
2015-Apr-15 11:33N 28°08' W 015°26'0 0.0
2015-Apr-15 10:33N 28°08' W 015°26'0 0.0
2015-Apr-15 09:33N 28°08' W 015°26'0 0.3
2015-Apr-15 08:33N 28°08' W 015°25'0 0.2
2015-Apr-15 07:33N 28°08' W 015°25'0 0.5
2015-Apr-15 06:33N 28°08' W 015°25'0 0.2
2015-Apr-15 05:34N 28°08' W 015°25'1 0.8
2015-Apr-15 04:34N 28°08' W 015°26'0 0.0
2015-Apr-15 03:32N 28°08' W 015°26'0 0.0
2015-Apr-15 02:32N 28°08' W 015°26'0 0.0
2015-Apr-15 01:32N 28°08' W 015°26'0 0.0
2015-Apr-15 00:33N 28°08' W 015°26'0 0.0
2015-Apr-14 23:33N 28°08' W 015°26'0 0.0
2015-Apr-14 22:31N 28°08' W 015°26'0 0.0
2015-Apr-14 21:32N 28°08' W 015°26'0 0.0
2015-Apr-14 20:33N 28°08' W 015°26'0 0.0
2015-Apr-14 19:32N 28°08' W 015°26'0 0.0
2015-Apr-14 18:33N 28°08' W 015°26'1 0.9
2015-Apr-14 17:33N 28°09' W 015°25'1 0.9
2015-Apr-14 16:33N 28°08' W 015°26'0 0.0
2015-Apr-14 15:33N 28°08' W 015°26'0 0.0
2015-Apr-14 14:33N 28°08' W 015°26'0 0.0
2015-Apr-14 13:33N 28°08' W 015°26'0 0.0
2015-Apr-14 12:33N 28°08' W 015°26'0 0.0
2015-Apr-14 11:34N 28°08' W 015°26'0 0.0
2015-Apr-14 10:33N 28°08' W 015°26'0 0.0
2015-Apr-14 09:33N 28°08' W 015°26'1 1.4
2015-Apr-14 08:33N 28°07' W 015°25'1 0.8
2015-Apr-14 07:33N 28°08' W 015°25'1 0.8
2015-Apr-14 06:33N 28°08' W 015°26'1 1.1
2015-Apr-14 05:33N 28°07' W 015°25'1 1.1
2015-Apr-14 04:33N 28°08' W 015°26'0 0.0
2015-Apr-14 03:33N 28°08' W 015°26'2 1.7
2015-Apr-14 02:33N 28°09' W 015°24'2 1.6
2015-Apr-14 01:33N 28°08' W 015°24'1 1.4
2015-Apr-14 00:33N 28°08' W 015°26'0 0.0
2015-Apr-13 23:33N 28°08' W 015°26'0 0.0
2015-Apr-13 22:33N 28°08' W 015°26'0 0.0
2015-Apr-13 21:33N 28°08' W 015°26'0 0.0
2015-Apr-13 20:33N 28°08' W 015°26'0 0.0
2015-Apr-13 19:33N 28°08' W 015°26'0 0.0
2015-Apr-13 18:33N 28°08' W 015°26'2 1.9
2015-Apr-13 17:33N 28°07' W 015°25'5 5.1
2015-Apr-13 16:34N 28°02' W 015°22'0 0.1
2015-Apr-13 15:34N 28°02' W 015°22'0 0.1
2015-Apr-13 14:34N 28°02' W 015°22'0 0.1
2015-Apr-13 13:34N 28°02' W 015°22'0 0.2
2015-Apr-13 12:34N 28°02' W 015°22'3 3.3
2015-Apr-13 11:33N 28°06' W 015°23'3 3.2
2015-Apr-13 10:33N 28°09' W 015°24'1 0.8
2015-Apr-13 09:33N 28°10' W 015°24'2 1.9
2015-Apr-13 08:33N 28°08' W 015°25'1 0.5
2015-Apr-13 07:33N 28°09' W 015°26'0 0.0
2015-Apr-13 06:33N 28°08' W 015°26'0 0.0
2015-Apr-13 05:33N 28°08' W 015°26'0 0.0
2015-Apr-13 04:33N 28°08' W 015°26'0 0.0
2015-Apr-13 03:33N 28°08' W 015°26'0 0.0
2015-Apr-13 02:33N 28°08' W 015°26'0 0.0
2015-Apr-13 01:33N 28°08' W 015°26'0 0.0
2015-Apr-13 00:33N 28°08' W 015°26'0 0.0
2015-Apr-12 23:33N 28°08' W 015°26'0 0.0
2015-Apr-12 22:33N 28°08' W 015°26'0 0.0
2015-Apr-12 21:34N 28°08' W 015°26'0 0.0
2015-Apr-12 20:34N 28°08' W 015°26'2 1.6
2015-Apr-12 19:33N 28°07' W 015°24'2 1.6
2015-Apr-12 18:33N 28°08' W 015°26'0 0.0
2015-Apr-12 17:33N 28°08' W 015°26'0 0.0
2015-Apr-12 16:33N 28°08' W 015°26'1 0.6
2015-Apr-12 15:33N 28°09' W 015°25'1 0.6
2015-Apr-12 14:33N 28°08' W 015°26'0 0.2
2015-Apr-12 13:33N 28°08' W 015°25'6 6.0
2015-Apr-12 12:33N 28°03' W 015°22'1110.7
2015-Apr-12 11:33N 27°56' W 015°12'8 8.3
2015-Apr-12 10:33N 27°54' W 015°03'1 1.3
2015-Apr-12 09:33N 27°55' W 015°04'2 2.5
2015-Apr-12 08:33N 27°57' W 015°06'4 4.5
2015-Apr-12 07:33N 28°01' W 015°09'4 3.6
2015-Apr-12 06:33N 28°03' W 015°12'3 3.0
2015-Apr-12 05:33N 28°03' W 015°16'4 3.7
2015-Apr-12 04:33N 28°05' W 015°19'3 3.1
2015-Apr-12 03:33N 28°06' W 015°23'3 3.3
2015-Apr-12 02:33N 28°08' W 015°25'0 0.3
2015-Apr-12 01:33N 28°08' W 015°26'0 0.3
2015-Apr-12 00:33N 28°08' W 015°25'1 1.1
2015-Apr-11 23:32N 28°07' W 015°25'1 1.4
2015-Apr-11 22:33N 28°08' W 015°26'0 0.0
2015-Apr-11 21:33N 28°08' W 015°26'0 0.3
2015-Apr-11 20:33N 28°08' W 015°25'0 0.3
2015-Apr-11 19:33N 28°08' W 015°26'1 0.7
2015-Apr-11 18:33N 28°08' W 015°25'1 1.0
2015-Apr-11 17:33N 28°07' W 015°24'2 1.6
2015-Apr-11 16:33N 28°08' W 015°26'0 0.4
2015-Apr-11 15:33N 28°09' W 015°25'1 1.2
2015-Apr-11 14:33N 28°08' W 015°25'1 1.0
2015-Apr-11 13:33N 28°08' W 015°26'1 0.9
2015-Apr-11 12:33N 28°08' W 015°25'1 0.8
2015-Apr-11 11:33N 28°07' W 015°24'  

Dump ship's entire track history